Map

Track Data

SID SEASON NUMBER BASIN SUBBASIN NAME ISO_TIME NATURE LAT LON WMO_WIND WMO_PRES WMO_AGENCY TRACK_TYPE DIST2LAND LANDFALL IFLAG USA_AGENCY USA_ATCF_ID USA_LAT USA_LON USA_RECORD USA_STATUS USA_WIND USA_PRES USA_SSHS USA_R34_NE USA_R34_SE USA_R34_SW USA_R34_NW USA_R50_NE USA_R50_SE USA_R50_SW USA_R50_NW USA_R64_NE USA_R64_SE USA_R64_SW USA_R64_NW USA_POCI USA_ROCI USA_RMW USA_EYE TOKYO_LAT TOKYO_LON TOKYO_GRADE TOKYO_WIND TOKYO_PRES TOKYO_R50_DIR TOKYO_R50_LONG TOKYO_R50_SHORT TOKYO_R30_DIR TOKYO_R30_LONG TOKYO_R30_SHORT TOKYO_LAND CMA_LAT CMA_LON CMA_CAT CMA_WIND CMA_PRES HKO_LAT HKO_LON HKO_CAT HKO_WIND HKO_PRES NEWDELHI_LAT NEWDELHI_LON NEWDELHI_GRADE NEWDELHI_WIND NEWDELHI_PRES NEWDELHI_CI NEWDELHI_DP NEWDELHI_POCI REUNION_LAT REUNION_LON REUNION_TYPE REUNION_WIND REUNION_PRES REUNION_TNUM REUNION_CI REUNION_RMW REUNION_R34_NE REUNION_R34_SE REUNION_R34_SW REUNION_R34_NW REUNION_R50_NE REUNION_R50_SE REUNION_R50_SW REUNION_R50_NW REUNION_R64_NE REUNION_R64_SE REUNION_R64_SW REUNION_R64_NW BOM_LAT BOM_LON BOM_TYPE BOM_WIND BOM_PRES BOM_TNUM BOM_CI BOM_RMW BOM_R34_NE BOM_R34_SE BOM_R34_SW BOM_R34_NW BOM_R50_NE BOM_R50_SE BOM_R50_SW BOM_R50_NW BOM_R64_NE BOM_R64_SE BOM_R64_SW BOM_R64_NW BOM_ROCI BOM_POCI BOM_EYE BOM_POS_METHOD BOM_PRES_METHOD NADI_LAT NADI_LON NADI_CAT NADI_WIND NADI_PRES WELLINGTON_LAT WELLINGTON_LON WELLINGTON_WIND WELLINGTON_PRES DS824_LAT DS824_LON DS824_STAGE DS824_WIND DS824_PRES TD9636_LAT TD9636_LON TD9636_STAGE TD9636_WIND TD9636_PRES TD9635_LAT TD9635_LON TD9635_WIND TD9635_PRES TD9635_ROCI NEUMANN_LAT NEUMANN_LON NEUMANN_CLASS NEUMANN_WIND NEUMANN_PRES MLC_LAT MLC_LON MLC_CLASS MLC_WIND MLC_PRES USA_GUST BOM_GUST BOM_GUST_PER REUNION_GUST REUNION_GUST_PER USA_SEAHGT USA_SEARAD_NE USA_SEARAD_SE USA_SEARAD_SW USA_SEARAD_NW STORM_SPEED STORM_DIR
1881121S06095 1881 13 SI WA NOT_NAMED 1881-04-30 18:00:00 NR -6.40000 95.3000 main 661 661 __________O___ -1 -6.40000 95.3000 7 5 254
1881121S06095 1881 13 SI WA NOT_NAMED 1881-04-30 21:00:00 NR -6.46723 95.0688 main 683 683 __________P___ -1 -6.46723 95.0688 7 5 254
1881121S06095 1881 13 SI WA NOT_NAMED 1881-05-01 00:00:00 NR -6.53753 94.8301 main 704 704 __________P___ -1 -6.53753 94.8301 7 5 253
1881121S06095 1881 13 SI WA NOT_NAMED 1881-05-01 03:00:00 NR -6.61407 94.5763 main 727 727 __________P___ -1 -6.61407 94.5763 7 6 253
1881121S06095 1881 13 SI WA NOT_NAMED 1881-05-01 06:00:00 NR -6.70000 94.3000 main 757 757 __________O___ -1 -6.70000 94.3000 7 6 252
1881121S06095 1881 13 SI WA NOT_NAMED 1881-05-01 09:00:00 NR -6.79844 93.9965 main 788 788 __________P___ -1 -6.79844 93.9965 7 7 251
1881121S06095 1881 13 SI WA NOT_NAMED 1881-05-01 12:00:00 NR -6.91250 93.6724 main 820 820 __________P___ -1 -6.91250 93.6724 7 7 249
1881121S06095 1881 13 SI WA NOT_NAMED 1881-05-01 15:00:00 NR -7.04530 93.3371 main 859 859 __________P___ -1 -7.04530 93.3371 7 7 247
1881121S06095 1881 13 SI WA NOT_NAMED 1881-05-01 18:00:00 NR -7.20000 93.0000 main 899 899 __________O___ -1 -7.20000 93.0000 7 7 244
1881121S06095 1881 13 SI WA NOT_NAMED 1881-05-01 21:00:00 NR -7.37032 92.6588 main 938 938 __________P___ -1 -7.37032 92.6588 7 8 242
1881121S06095 1881 13 SI WA NOT_NAMED 1881-05-02 00:00:00 NR -7.56253 92.3200 main 986 986 __________P___ -1 -7.56253 92.3200 7 8 238
1881121S06095 1881 13 SI WA NOT_NAMED 1881-05-02 03:00:00 NR -7.77346 91.9962 main 1025 1025 __________P___ -1 -7.77346 91.9962 7 8 235
1881121S06095 1881 13 SI WA NOT_NAMED 1881-05-02 06:00:00 NR -8.00000 91.7000 main 1065 1065 __________O___ -1 -8.00000 91.7000 7 7 231
1881121S06095 1881 13 SI WA NOT_NAMED 1881-05-02 09:00:00 NR -8.22743 91.4299 main 1105 1105 __________P___ -1 -8.22743 91.4299 7 7 227
1881121S06095 1881 13 SI WA NOT_NAMED 1881-05-02 12:00:00 NR -8.46992 91.1899 main 1143 1143 __________P___ -1 -8.46992 91.1899 7 7 222
1881121S06095 1881 13 SI WA NOT_NAMED 1881-05-02 15:00:00 NR -8.72746 90.9800 main 1175 1175 __________P___ -1 -8.72746 90.9800 7 7 216
1881121S06095 1881 13 SI WA NOT_NAMED 1881-05-02 18:00:00 NR -9.00000 90.8000 main 1213 1213 __________O___ -1 -9.00000 90.8000 7 7 212
1881121S06095 1881 13 SI WA NOT_NAMED 1881-05-02 21:00:00 NR -9.28557 90.6300 main 1252 1252 __________P___ -1 -9.28557 90.6300 7 7 208
1881121S06095 1881 13 SI WA NOT_NAMED 1881-05-03 00:00:00 NR -9.58495 90.4900 main 1283 1283 __________P___ -1 -9.58495 90.4900 7 7 202
1881121S06095 1881 13 SI WA NOT_NAMED 1881-05-03 03:00:00 NR -9.89185 90.3800 main 1314 1314 __________P___ -1 -9.89185 90.3800 7 6 197
1881121S06095 1881 13 SI WA NOT_NAMED 1881-05-03 06:00:00 NR -10.2000 90.3000 main 1345 1345 __________O___ -1 -10.2000 90.3000 7 6 193
1881121S06095 1881 13 SI WA NOT_NAMED 1881-05-03 09:00:00 NR -10.5040 90.2340 main 1377 1377 __________P___ -1 -10.5040 90.2340 7 6 189
1881121S06095 1881 13 SI WA NOT_NAMED 1881-05-03 12:00:00 NR -10.8075 90.1975 main 1401 1401 __________P___ -1 -10.8075 90.1975 7 6 183
1881121S06095 1881 13 SI WA NOT_NAMED 1881-05-03 15:00:00 NR -11.1072 90.1872 main 1425 1425 __________P___ -1 -11.1072 90.1872 7 6 0
1881121S06095 1881 13 SI WA NOT_NAMED 1881-05-03 18:00:00 NR -11.4000 90.2000 main 1450 1450 __________O___ -1 -11.4000 90.2000 7 6 177
1881121S06095 1881 13 SI WA NOT_NAMED 1881-05-03 21:00:00 NR -11.6838 90.2325 main 1475 1475 __________P___ -1 -11.6838 90.2325 7 6 172
1881121S06095 1881 13 SI WA NOT_NAMED 1881-05-04 00:00:00 NR -11.9600 90.2799 main 1494 1494 __________P___ -1 -11.9600 90.2799 7 6 170
1881121S06095 1881 13 SI WA NOT_NAMED 1881-05-04 03:00:00 NR -12.2313 90.3374 main 1511 1511 __________P___ -1 -12.2313 90.3374 7 6 168
1881121S06095 1881 13 SI WA NOT_NAMED 1881-05-04 06:00:00 NR -12.5000 90.4000 main 1530 __________O___ -1 -12.5000 90.4000 7 6 169

About IBTrACS Database

This database is a web-friendly format of International Best Track Archive for Climate Stewardship (IBTrACS), a global best track data archive curated by NOAA dating back to 1842.

Updated: 2021-11-26